createdAt,value
2019-03-16T00:00:33.886Z,7.20
2019-03-16T00:03:05.581Z,7.14
2019-03-16T00:05:37.214Z,7.13
2019-03-16T00:08:08.994Z,7.14
2019-03-16T00:10:40.662Z,7.17
2019-03-16T00:13:15.856Z,7.11
2019-03-16T00:15:45.650Z,7.12
2019-03-16T00:18:17.344Z,7.10
2019-03-16T00:20:48.930Z,7.11
2019-03-16T00:23:20.778Z,7.09
2019-03-16T00:25:52.510Z,7.09
2019-03-16T00:28:24.446Z,7.13
2019-03-16T00:30:56.108Z,7.06
2019-03-16T00:33:27.713Z,7.10
2019-03-16T00:35:59.287Z,7.04
2019-03-16T00:38:30.891Z,7.04
2019-03-16T00:41:02.469Z,7.06
2019-03-16T00:43:34.226Z,7.08
2019-03-16T00:46:05.770Z,7.09
2019-03-16T00:48:37.370Z,7.09
2019-03-16T00:51:08.962Z,7.10
2019-03-16T00:53:40.625Z,7.08
2019-03-16T00:56:12.255Z,7.05
2019-03-16T00:58:43.868Z,7.05
2019-03-16T01:01:15.516Z,7.02
2019-03-16T01:03:47.193Z,7.01
2019-03-16T01:06:18.777Z,7.01
2019-03-16T01:08:50.681Z,7.00
2019-03-16T01:11:22.509Z,6.95
2019-03-16T01:13:54.357Z,6.96
2019-03-16T01:16:26.004Z,6.95
2019-03-16T01:18:57.601Z,6.93
2019-03-16T01:21:29.193Z,6.95
2019-03-16T01:24:00.861Z,6.95
2019-03-16T01:26:32.443Z,6.91
2019-03-16T01:29:04.048Z,6.95
2019-03-16T01:31:35.632Z,6.98
2019-03-16T01:34:07.227Z,7.00
2019-03-16T01:36:38.803Z,6.97
2019-03-16T01:39:10.494Z,6.97
2019-03-16T01:41:42.091Z,6.92
2019-03-16T01:44:13.704Z,6.93
2019-03-16T01:46:45.286Z,6.96
2019-03-16T01:49:16.883Z,6.96
2019-03-16T01:51:49.545Z,6.95
2019-03-16T01:54:21.344Z,6.95
2019-03-16T01:56:52.922Z,6.92
2019-03-16T01:59:24.622Z,6.92
2019-03-16T02:01:56.208Z,6.92
2019-03-16T02:04:27.903Z,6.94
2019-03-16T02:06:59.553Z,6.91
2019-03-16T02:09:31.332Z,6.86
2019-03-16T02:12:02.921Z,6.86
2019-03-16T02:14:34.533Z,6.85
2019-03-16T02:17:06.287Z,6.86
2019-03-16T02:19:37.905Z,6.87
2019-03-16T02:22:09.487Z,6.83
2019-03-16T02:24:41.089Z,6.85
2019-03-16T02:27:12.740Z,6.80
2019-03-16T02:29:44.337Z,6.79
2019-03-16T02:32:15.928Z,6.75
2019-03-16T02:34:47.528Z,6.73
2019-03-16T02:37:19.114Z,6.69
2019-03-16T02:39:51.228Z,6.69
2019-03-16T02:42:22.819Z,6.67
2019-03-16T02:44:54.598Z,6.69
2019-03-16T02:47:26.274Z,6.68
2019-03-16T02:49:57.938Z,6.66
2019-03-16T02:52:29.513Z,6.65
2019-03-16T02:55:01.301Z,6.63
2019-03-16T02:57:33.124Z,6.58
2019-03-16T03:00:05.170Z,6.61
2019-03-16T03:02:36.922Z,6.53
2019-03-16T03:05:08.880Z,6.55
2019-03-16T03:07:40.514Z,6.55
2019-03-16T03:10:12.280Z,6.57
2019-03-16T03:12:43.943Z,6.54
2019-03-16T03:15:16.621Z,6.48
2019-03-16T03:17:48.205Z,6.47
2019-03-16T03:20:19.854Z,6.47
2019-03-16T03:22:51.593Z,6.47
2019-03-16T03:25:23.248Z,6.48
2019-03-16T03:27:54.848Z,6.48
2019-03-16T03:30:26.462Z,6.42
2019-03-16T03:32:58.066Z,6.42
2019-03-16T03:35:29.851Z,6.42
2019-03-16T03:38:01.509Z,6.45
2019-03-16T03:40:33.192Z,6.42
2019-03-16T03:43:04.841Z,6.47
2019-03-16T03:45:36.449Z,6.46
2019-03-16T03:48:08.107Z,6.47
2019-03-16T03:50:39.703Z,6.42
2019-03-16T03:53:11.357Z,6.42
2019-03-16T03:55:42.955Z,6.41
2019-03-16T03:58:14.526Z,6.41
2019-03-16T04:00:46.112Z,6.41
2019-03-16T04:03:17.792Z,6.38
2019-03-16T04:05:49.520Z,6.39
2019-03-16T04:08:21.346Z,6.40
2019-03-16T04:10:53.043Z,6.38
2019-03-16T04:13:24.732Z,6.36
2019-03-16T04:15:56.313Z,6.39
2019-03-16T04:18:28.002Z,6.36
2019-03-16T04:20:59.619Z,6.32
2019-03-16T04:23:32.285Z,6.30
2019-03-16T04:26:03.948Z,6.29
2019-03-16T04:28:35.547Z,6.32
2019-03-16T04:31:07.250Z,6.31
2019-03-16T04:33:39.015Z,6.34
2019-03-16T04:36:10.625Z,6.30
2019-03-16T04:38:42.308Z,6.29
2019-03-16T04:41:14.096Z,6.26
2019-03-16T04:43:45.805Z,6.26
2019-03-16T04:46:17.506Z,6.30
2019-03-16T04:48:49.197Z,6.33
2019-03-16T04:51:20.799Z,6.29
2019-03-16T04:53:52.524Z,6.28
2019-03-16T04:56:24.481Z,6.26
2019-03-16T04:58:56.070Z,6.30
2019-03-16T05:01:27.746Z,6.31
2019-03-16T05:03:59.516Z,6.32
2019-03-16T05:06:31.484Z,6.31
2019-03-16T05:09:03.421Z,6.28
2019-03-16T05:11:35.109Z,6.29
2019-03-16T05:14:06.690Z,6.28
2019-03-16T05:16:38.463Z,6.20
2019-03-16T05:19:10.165Z,6.21
2019-03-16T05:21:41.957Z,6.19
2019-03-16T05:24:13.667Z,6.13
2019-03-16T05:26:45.271Z,6.08
2019-03-16T05:29:16.863Z,6.14
2019-03-16T05:31:50.662Z,6.09
2019-03-16T05:34:21.896Z,6.11
2019-03-16T05:36:56.085Z,6.13
2019-03-16T05:39:27.112Z,6.13
2019-03-16T05:41:58.819Z,6.12
2019-03-16T05:44:30.502Z,6.14
2019-03-16T05:47:02.188Z,6.13
2019-03-16T05:49:33.771Z,6.13
2019-03-16T05:52:05.478Z,6.08
2019-03-16T05:54:37.069Z,6.10
2019-03-16T05:57:08.677Z,6.16
2019-03-16T05:59:40.267Z,6.15
2019-03-16T06:02:12.570Z,6.09
2019-03-16T06:04:44.259Z,6.12
2019-03-16T06:07:15.966Z,6.15
2019-03-16T06:09:47.667Z,6.20
2019-03-16T06:12:19.291Z,6.20
2019-03-16T06:14:50.875Z,6.25
2019-03-16T06:17:22.679Z,6.24
2019-03-16T06:19:54.442Z,6.28
2019-03-16T06:22:26.039Z,6.27
2019-03-16T06:24:57.646Z,6.26
2019-03-16T06:27:29.270Z,6.27
2019-03-16T06:30:00.874Z,6.27
2019-03-16T06:32:33.633Z,6.27
2019-03-16T06:35:05.241Z,6.34
2019-03-16T06:37:36.923Z,6.43
2019-03-16T06:40:08.654Z,6.49
2019-03-16T06:42:40.374Z,6.61
2019-03-16T06:45:12.131Z,6.62
2019-03-16T06:47:43.747Z,6.58
2019-03-16T06:50:15.443Z,6.66
2019-03-16T06:52:47.031Z,6.71
2019-03-16T06:55:18.614Z,6.77
2019-03-16T06:57:50.191Z,6.88
2019-03-16T07:00:21.781Z,6.81
2019-03-16T07:02:53.637Z,6.75
2019-03-16T07:05:37.540Z,6.75
2019-03-16T07:07:59.022Z,6.62
2019-03-16T07:10:30.670Z,6.63
2019-03-16T07:13:02.250Z,6.69
2019-03-16T07:15:33.873Z,6.68
2019-03-16T07:18:05.590Z,6.71
2019-03-16T07:20:37.185Z,6.67
2019-03-16T07:23:09.883Z,6.65
2019-03-16T07:25:41.590Z,6.79
2019-03-16T07:28:13.490Z,6.86
2019-03-16T07:30:45.170Z,6.86
2019-03-16T07:33:16.819Z,6.82
2019-03-16T07:35:48.417Z,6.89
2019-03-16T07:38:20.091Z,6.83
2019-03-16T07:40:51.759Z,6.91
2019-03-16T07:43:23.627Z,6.90
2019-03-16T07:45:55.498Z,6.97
2019-03-16T07:48:27.095Z,6.96
2019-03-16T07:50:58.690Z,7.01
2019-03-16T07:53:30.298Z,7.01
2019-03-16T07:56:03.679Z,7.10
2019-03-16T07:58:35.374Z,7.12
2019-03-16T08:01:06.957Z,7.14
2019-03-16T08:03:38.574Z,7.17
2019-03-16T08:06:10.158Z,7.18
2019-03-16T08:08:41.841Z,7.22
2019-03-16T08:11:13.429Z,7.21
2019-03-16T08:13:45.030Z,7.25
2019-03-16T08:16:16.627Z,7.26
2019-03-16T08:18:48.307Z,7.29
2019-03-16T08:21:19.959Z,7.31
2019-03-16T08:23:53.746Z,7.31
2019-03-16T08:26:24.958Z,7.34
2019-03-16T08:28:59.154Z,7.37
2019-03-16T08:31:29.911Z,7.31
2019-03-16T08:34:01.603Z,7.38
2019-03-16T08:36:33.261Z,7.41
2019-03-16T08:39:05.675Z,7.65
2019-03-16T08:41:37.266Z,7.74
2019-03-16T08:44:08.883Z,7.69
2019-03-16T08:46:41.006Z,7.68
2019-03-16T08:49:12.762Z,7.80
2019-03-16T08:51:44.367Z,7.93
2019-03-16T08:54:15.969Z,7.90
2019-03-16T08:56:47.645Z,7.99
2019-03-16T08:59:19.309Z,8.11
2019-03-16T09:01:51.976Z,8.15
2019-03-16T09:04:23.692Z,8.11
2019-03-16T09:06:56.248Z,8.15
2019-03-16T09:09:27.854Z,8.11
2019-03-16T09:12:00.520Z,8.05
2019-03-16T09:14:32.117Z,8.18
2019-03-16T09:17:04.021Z,8.33
2019-03-16T09:19:35.858Z,8.32
2019-03-16T09:22:07.573Z,8.23
2019-03-16T09:24:39.264Z,8.22
2019-03-16T09:27:10.947Z,8.25
2019-03-16T09:29:42.562Z,8.35
2019-03-16T09:32:14.153Z,8.58
2019-03-16T09:34:45.760Z,8.54
2019-03-16T09:37:17.341Z,8.32
2019-03-16T09:39:48.964Z,8.29
2019-03-16T09:42:20.810Z,8.33
2019-03-16T09:44:52.656Z,8.23
2019-03-16T09:47:24.589Z,8.17
2019-03-16T09:50:20.335Z,8.05
2019-03-16T09:52:52.809Z,7.93
2019-03-16T09:55:25.392Z,8.05
2019-03-16T09:57:57.084Z,8.15
2019-03-16T10:00:28.713Z,8.16
2019-03-16T10:03:00.310Z,8.32
2019-03-16T10:05:31.924Z,8.27
2019-03-16T10:08:03.586Z,8.27
2019-03-16T10:10:35.451Z,8.32
2019-03-16T10:13:07.612Z,8.40
2019-03-16T10:15:41.275Z,8.56
2019-03-16T10:18:13.234Z,8.73
2019-03-16T10:20:44.979Z,8.97
2019-03-16T10:23:17.817Z,8.98
2019-03-16T10:25:49.826Z,8.93
2019-03-16T10:28:22.113Z,9.01
2019-03-16T10:30:53.772Z,8.90
2019-03-16T10:33:25.466Z,8.75
2019-03-16T10:35:58.138Z,8.74
2019-03-16T10:38:29.734Z,8.77
2019-03-16T10:41:01.349Z,8.78
2019-03-16T10:43:34.469Z,8.79
2019-03-16T10:46:08.365Z,8.91
2019-03-16T10:48:39.740Z,9.06
2019-03-16T10:51:11.439Z,9.26
2019-03-16T10:53:43.094Z,9.25
2019-03-16T10:56:14.814Z,9.30
2019-03-16T10:58:56.130Z,9.33
2019-03-16T11:01:20.254Z,9.42
2019-03-16T11:03:52.652Z,9.45
2019-03-16T11:06:24.631Z,9.56
2019-03-16T11:08:56.677Z,9.55
2019-03-16T11:11:28.305Z,9.68
2019-03-16T11:14:00.089Z,9.75
2019-03-16T11:16:33.520Z,9.51
2019-03-16T11:19:05.584Z,9.52
2019-03-16T11:21:37.361Z,9.56
2019-03-16T11:24:09.169Z,9.39
2019-03-16T11:26:41.127Z,9.48
2019-03-16T11:29:13.031Z,9.47
2019-03-16T11:31:45.021Z,9.49
2019-03-16T11:34:16.850Z,9.57
2019-03-16T11:36:48.576Z,9.48
2019-03-16T11:39:20.482Z,9.73
2019-03-16T11:41:54.077Z,9.75
2019-03-16T11:44:28.105Z,9.77
2019-03-16T11:46:59.826Z,9.77
2019-03-16T11:49:31.711Z,9.63
2019-03-16T11:52:03.891Z,9.64
2019-03-16T11:54:35.773Z,9.72
2019-03-16T11:57:07.626Z,9.90
2019-03-16T11:59:39.367Z,10.01
2019-03-16T12:02:11.055Z,9.96
2019-03-16T12:04:42.961Z,10.04
2019-03-16T12:07:14.756Z,9.81
2019-03-16T12:09:46.517Z,9.86
2019-03-16T12:12:18.293Z,10.05
2019-03-16T12:14:50.156Z,10.20
2019-03-16T12:17:22.192Z,10.21
2019-03-16T12:19:54.001Z,10.08
2019-03-16T12:22:25.730Z,9.96
2019-03-16T12:24:58.304Z,9.86
2019-03-16T12:27:30.338Z,9.85
2019-03-16T12:30:06.039Z,9.77
2019-03-16T12:32:40.899Z,9.49
2019-03-16T12:35:14.806Z,9.66
2019-03-16T12:37:46.969Z,9.76
2019-03-16T12:40:18.979Z,9.90
2019-03-16T12:42:50.620Z,10.04
2019-03-16T12:45:22.661Z,9.97
2019-03-16T12:47:54.394Z,10.02
2019-03-16T12:50:26.294Z,10.02
2019-03-16T12:52:58.394Z,10.01
2019-03-16T12:55:30.487Z,10.05
2019-03-16T12:58:03.643Z,10.17
2019-03-16T13:00:35.668Z,10.14
2019-03-16T13:03:07.966Z,10.08
2019-03-16T13:05:40.302Z,10.17
2019-03-16T13:08:12.452Z,10.31
2019-03-16T13:10:44.765Z,10.61
2019-03-16T13:13:16.762Z,10.62
2019-03-16T13:15:49.363Z,10.58
2019-03-16T13:18:21.710Z,10.69
2019-03-16T13:20:53.519Z,10.73
2019-03-16T13:23:25.507Z,10.83
2019-03-16T13:25:57.417Z,10.84
2019-03-16T13:28:29.020Z,10.90
2019-03-16T13:31:00.647Z,10.71
2019-03-16T13:33:33.347Z,10.69
2019-03-16T13:36:04.959Z,10.63
2019-03-16T13:38:36.646Z,10.81
2019-03-16T13:41:08.414Z,10.89
2019-03-16T13:43:40.055Z,10.93
2019-03-16T13:46:11.671Z,10.92
2019-03-16T13:48:43.579Z,10.73
2019-03-16T13:51:15.196Z,10.60
2019-03-16T13:53:46.824Z,10.53
2019-03-16T13:56:18.492Z,10.54
2019-03-16T13:58:50.392Z,10.60
2019-03-16T14:01:22.108Z,10.64
2019-03-16T14:03:53.928Z,10.59
2019-03-16T14:06:25.897Z,10.61
2019-03-16T14:08:57.807Z,10.71
2019-03-16T14:11:29.439Z,10.61
2019-03-16T14:14:01.048Z,10.50
2019-03-16T14:16:32.720Z,10.49
2019-03-16T14:19:04.641Z,10.59
2019-03-16T14:21:38.030Z,10.70
2019-03-16T14:24:09.715Z,10.57
2019-03-16T14:26:42.619Z,10.71
2019-03-16T14:29:14.401Z,10.84
2019-03-16T14:31:48.016Z,10.80
2019-03-16T14:34:20.129Z,10.60
2019-03-16T14:36:53.338Z,10.72
2019-03-16T14:39:27.389Z,10.79
2019-03-16T14:41:59.636Z,10.72
2019-03-16T14:44:32.300Z,10.69
2019-03-16T14:47:04.172Z,10.67
2019-03-16T14:49:35.874Z,10.64
2019-03-16T14:52:07.790Z,10.51
2019-03-16T14:54:39.482Z,10.38
2019-03-16T14:57:11.164Z,10.31
2019-03-16T14:59:44.009Z,10.32
2019-03-16T15:02:15.616Z,10.27
2019-03-16T15:04:47.310Z,10.29
2019-03-16T15:07:18.915Z,10.30
2019-03-16T15:09:50.646Z,10.34
2019-03-16T15:12:22.466Z,10.31
2019-03-16T15:14:54.542Z,10.26
2019-03-16T15:17:28.352Z,10.20
2019-03-16T15:20:00.571Z,10.09
2019-03-16T15:22:32.371Z,10.17
2019-03-16T15:25:04.488Z,10.16
2019-03-16T15:27:36.284Z,10.19
2019-03-16T15:30:10.520Z,10.12
2019-03-16T15:32:44.796Z,10.02
2019-03-16T15:35:17.385Z,9.97
2019-03-16T15:37:49.327Z,9.75
2019-03-16T15:40:21.406Z,9.57
2019-03-16T15:42:54.615Z,9.62
2019-03-16T15:45:26.889Z,9.53
2019-03-16T15:47:58.805Z,9.42
2019-03-16T15:50:30.688Z,9.37
2019-03-16T15:53:02.499Z,9.22
2019-03-16T15:55:34.268Z,9.15
2019-03-16T15:58:08.435Z,8.97
2019-03-16T16:00:39.585Z,8.89
2019-03-16T16:03:11.548Z,8.81
2019-03-16T16:05:43.361Z,8.80
2019-03-16T16:08:15.134Z,8.61
2019-03-16T16:10:59.714Z,8.55
2019-03-16T16:13:22.052Z,8.51
2019-03-16T16:15:55.013Z,8.53
2019-03-16T16:18:26.777Z,8.37
2019-03-16T16:20:58.644Z,8.24
2019-03-16T16:23:30.440Z,8.18
2019-03-16T16:26:02.293Z,8.08
2019-03-16T16:28:34.414Z,8.08
2019-03-16T16:31:16.229Z,8.00
2019-03-16T16:33:40.686Z,8.02
2019-03-16T16:36:12.502Z,8.01
2019-03-16T16:38:44.427Z,8.10
2019-03-16T16:41:16.260Z,7.98
2019-03-16T16:43:48.140Z,7.88
2019-03-16T16:46:19.765Z,7.85
2019-03-16T16:48:51.543Z,7.75
2019-03-16T16:51:23.345Z,7.66
2019-03-16T16:53:55.298Z,7.70
2019-03-16T16:56:27.247Z,7.65
2019-03-16T16:58:59.078Z,7.66
2019-03-16T17:01:32.258Z,7.54
2019-03-16T17:04:04.578Z,7.43
2019-03-16T17:06:36.445Z,7.32
2019-03-16T17:09:08.805Z,7.33
2019-03-16T17:11:40.452Z,7.37
2019-03-16T17:14:12.230Z,7.35
2019-03-16T17:16:43.929Z,7.34
2019-03-16T17:19:15.663Z,7.28
2019-03-16T17:21:47.406Z,7.21
2019-03-16T17:24:19.460Z,7.28
2019-03-16T17:26:54.373Z,7.32
2019-03-16T17:29:26.799Z,7.29
2019-03-16T17:31:58.763Z,7.26
2019-03-16T17:34:30.496Z,7.28
2019-03-16T17:37:02.402Z,7.29
2019-03-16T17:39:34.151Z,7.19
2019-03-16T17:42:07.913Z,7.16
2019-03-16T17:44:39.785Z,7.05
2019-03-16T17:47:11.711Z,7.08
2019-03-16T17:49:44.876Z,7.10
2019-03-16T17:52:16.749Z,7.10
2019-03-16T17:54:48.411Z,7.11
2019-03-16T17:57:20.106Z,7.07
2019-03-16T17:59:52.316Z,7.12
2019-03-16T18:02:24.009Z,7.13
2019-03-16T18:04:59.578Z,7.07
2019-03-16T18:07:34.231Z,7.09
2019-03-16T18:10:08.580Z,7.09
2019-03-16T18:12:40.710Z,7.11
2019-03-16T18:15:12.912Z,7.11
2019-03-16T18:17:47.211Z,7.12
2019-03-16T18:20:19.225Z,7.06
2019-03-16T18:22:51.135Z,7.00
2019-03-16T18:25:23.491Z,7.08
2019-03-16T18:27:55.297Z,7.12
2019-03-16T18:30:27.161Z,7.12
2019-03-16T18:32:59.473Z,7.10
2019-03-16T18:35:31.304Z,7.05
2019-03-16T18:38:03.073Z,7.07
2019-03-16T18:40:34.884Z,7.02
2019-03-16T18:43:06.841Z,7.00
2019-03-16T18:45:39.438Z,6.98
2019-03-16T18:48:13.451Z,6.96
2019-03-16T18:50:46.276Z,6.91
2019-03-16T18:53:22.378Z,6.90
2019-03-16T18:55:55.676Z,6.94
2019-03-16T18:58:37.033Z,6.98
2019-03-16T19:01:03.225Z,6.97
2019-03-16T19:03:39.800Z,6.86
2019-03-16T19:06:12.563Z,6.88
2019-03-16T19:08:44.289Z,6.92
2019-03-16T19:11:16.591Z,6.92
2019-03-16T19:13:48.843Z,6.95
2019-03-16T19:16:20.936Z,6.89
2019-03-16T19:18:52.772Z,6.83
2019-03-16T19:21:24.698Z,6.94
2019-03-16T19:23:56.944Z,6.91
2019-03-16T19:26:30.078Z,6.94
2019-03-16T19:29:02.262Z,6.94
2019-03-16T19:31:34.086Z,6.97
2019-03-16T19:34:07.081Z,7.01
2019-03-16T19:36:39.478Z,6.95
2019-03-16T19:39:11.723Z,6.85
2019-03-16T19:41:46.313Z,6.85
2019-03-16T19:44:18.426Z,6.88
2019-03-16T19:46:52.234Z,6.86
2019-03-16T19:49:26.247Z,6.91
2019-03-16T19:52:01.559Z,6.86
2019-03-16T19:54:33.758Z,6.84
2019-03-16T19:57:15.480Z,6.74
2019-03-16T19:59:42.148Z,6.75
2019-03-16T20:02:14.648Z,6.78
2019-03-16T20:04:46.506Z,6.83
2019-03-16T20:07:19.592Z,6.78
2019-03-16T20:09:53.115Z,6.86
2019-03-16T20:12:24.863Z,6.90
2019-03-16T20:14:56.955Z,6.81
2019-03-16T20:17:28.859Z,6.81
2019-03-16T20:20:01.293Z,6.87
2019-03-16T20:22:33.422Z,6.84
2019-03-16T20:25:05.501Z,6.92
2019-03-16T20:27:38.699Z,6.84
2019-03-16T20:30:26.458Z,6.84
2019-03-16T20:33:04.370Z,6.80
2019-03-16T20:35:37.150Z,6.86
2019-03-16T20:38:08.870Z,6.80
2019-03-16T20:40:40.652Z,6.85
2019-03-16T20:43:12.364Z,6.79
2019-03-16T20:45:44.084Z,6.85
2019-03-16T20:48:15.902Z,6.80
2019-03-16T20:50:47.613Z,6.83
2019-03-16T20:53:19.311Z,6.91
2019-03-16T20:55:51.200Z,6.91
2019-03-16T20:58:23.148Z,6.88
2019-03-16T21:00:57.877Z,6.94
2019-03-16T21:03:29.185Z,6.89
2019-03-16T21:06:00.925Z,6.96
2019-03-16T21:08:32.751Z,6.96
2019-03-16T21:11:04.500Z,6.97
2019-03-16T21:13:36.603Z,7.03
2019-03-16T21:16:10.718Z,7.10
2019-03-16T21:18:42.799Z,7.11
2019-03-16T21:21:14.456Z,7.21
2019-03-16T21:23:46.134Z,7.17
2019-03-16T21:26:17.734Z,7.21
2019-03-16T21:28:49.421Z,7.22
2019-03-16T21:31:21.047Z,7.19
2019-03-16T21:33:52.706Z,7.14
2019-03-16T21:36:24.363Z,7.22
2019-03-16T21:38:56.916Z,7.21
2019-03-16T21:41:28.597Z,7.20
2019-03-16T21:44:00.260Z,7.27
2019-03-16T21:46:31.849Z,7.24
2019-03-16T21:49:03.446Z,7.22
2019-03-16T21:51:35.125Z,7.25
2019-03-16T21:54:06.799Z,7.22
2019-03-16T21:56:38.407Z,7.20
2019-03-16T21:59:10.057Z,7.18
2019-03-16T22:01:41.676Z,7.26
2019-03-16T22:04:13.266Z,7.25
2019-03-16T22:06:44.866Z,7.31
2019-03-16T22:09:16.932Z,7.27
2019-03-16T22:11:48.567Z,7.31
2019-03-16T22:14:20.162Z,7.36
2019-03-16T22:16:51.783Z,7.33
2019-03-16T22:19:23.377Z,7.37
2019-03-16T22:21:55.085Z,7.44
2019-03-16T22:24:28.085Z,7.52
2019-03-16T22:27:00.015Z,7.59
2019-03-16T22:29:31.595Z,7.61
2019-03-16T22:32:03.307Z,7.55
2019-03-16T22:34:34.954Z,7.55
2019-03-16T22:37:06.590Z,7.60
2019-03-16T22:39:38.159Z,7.64
2019-03-16T22:42:09.785Z,7.69
2019-03-16T22:44:41.439Z,7.70
2019-03-16T22:47:13.118Z,7.72
2019-03-16T22:49:44.767Z,7.72
2019-03-16T22:52:16.427Z,7.78
2019-03-16T22:54:48.013Z,7.80
2019-03-16T22:57:19.616Z,7.87
2019-03-16T22:59:51.326Z,7.91
2019-03-16T23:02:23.188Z,7.94
2019-03-16T23:04:54.999Z,7.99
2019-03-16T23:07:26.965Z,8.05
2019-03-16T23:09:58.613Z,8.05
2019-03-16T23:12:30.223Z,8.06
2019-03-16T23:15:01.913Z,8.03
2019-03-16T23:17:33.784Z,8.06
2019-03-16T23:20:05.600Z,8.08
2019-03-16T23:22:37.276Z,8.08
2019-03-16T23:25:08.939Z,8.13
2019-03-16T23:27:40.607Z,8.14
2019-03-16T23:30:12.280Z,8.20
2019-03-16T23:32:43.964Z,8.23
2019-03-16T23:35:15.629Z,8.28
2019-03-16T23:37:47.288Z,8.34
2019-03-16T23:40:18.939Z,8.40
2019-03-16T23:42:50.720Z,8.42
2019-03-16T23:45:22.307Z,8.43
2019-03-16T23:47:54.084Z,8.46
2019-03-16T23:50:25.786Z,8.40
2019-03-16T23:52:57.396Z,8.45
2019-03-16T23:55:28.996Z,8.43
2019-03-16T23:58:00.644Z,8.43
